Dedham, Massachusetts
Current Conditions -  °F | °C
As of 6:53 AM on Sunday 25 Jan 2015 (Local Time) from KOWD Reporting Station
Scattered Clouds Scattered Clouds  
Wind Chill: 23°   Ceiling: Unl
Heat Index: 31°   Visibility: 10mi
Dew Point: 26°   Wind: 8mph
Humidity: 82%   Direction: 250°WSW
Pressure: 29.51"   Gusts: NA
Location:  42.25°N, 71.17°W
Report Text: KOWD 251153Z 25007KT 10SM SCT065 M01/M03 A2951 RMK AO2 SLP993 70044 T10061033 10000 21017 53030
Loading
Personal Weather Stations






























Interactive Weather Map New forecast layout! Learn more

10-Day Weather Forecast

Advertisements
Track Severe Weather on mobile